Time;durP1;ratioP1;P1;durP2;ratioP2;P2;SDS_P1;SDS_P2;PMS_P1;PMS_P2;Temp;Humidity;BMP_temperature;BMP_pressure;BME280_temperature;BME280_humidity;BME280_pressure;Samples;Min_cycle;Max_cycle;Signal;HPM_P1;HPM_P2
2023/04/11 00:02:16;;;;;;;0.00;0.00;;;7.40;99.80;;;;;;5076031;28;20051;-90
2023/04/11 00:04:41;;;;;;;1.45;0.38;;;7.40;99.70;;;;;;5093226;28;20044;-90
2023/04/11 00:07:08;;;;;;;0.00;0.00;;;7.40;99.90;;;;;;5076072;28;20051;-89
2023/04/11 00:09:34;;;;;;;0.00;0.00;;;7.50;99.90;;;;;;5062130;28;20051;-89
2023/04/11 00:12:03;;;;;;;0.00;0.00;;;7.60;99.90;;;;;;5079134;28;20067;-87
2023/04/11 00:14:33;;;;;;;0.00;0.00;;;7.40;99.90;;;;;;5095840;28;20048;-87
2023/04/11 00:16:59;;;;;;;0.00;0.00;;;7.50;99.90;;;;;;5095939;28;20470;-87
2023/04/11 00:19:29;;;;;;;0.00;0.00;;;7.50;99.90;;;;;;5061978;28;20186;-86
2023/04/11 00:21:57;;;;;;;0.00;0.00;;;7.40;99.90;;;;;;5095744;28;20063;-87
2023/04/11 00:24:23;;;;;;;0.00;0.00;;;7.40;99.90;;;;;;5078905;28;20139;-87
2023/04/11 00:26:49;;;;;;;0.00;0.00;;;7.50;99.90;;;;;;5079031;28;20086;-87
2023/04/11 00:29:15;;;;;;;0.00;0.00;;;7.40;99.90;;;;;;5096118;28;20084;-87
2023/04/11 00:31:41;;;;;;;0.00;0.00;;;7.40;99.90;;;;;;5079324;28;20039;-87
2023/04/11 00:34:06;;;;;;;0.00;0.00;;;7.30;99.90;;;;;;5095412;28;20369;-87
2023/04/11 00:36:32;;;;;;;0.00;0.00;;;7.30;99.90;;;;;;5078646;28;20048;-87
2023/04/11 00:39:00;;;;;;;0.00;0.00;;;7.30;99.90;;;;;;5045586;28;20040;-87
2023/04/11 00:41:26;;;;;;;0.00;0.00;;;7.20;99.90;;;;;;5078735;28;20139;-88
2023/04/11 00:43:54;;;;;;;0.00;0.00;;;7.20;99.90;;;;;;5095550;28;20131;-89
2023/04/11 00:46:20;;;;;;;0.00;0.00;;;7.10;99.90;;;;;;5061912;28;20380;-89
2023/04/11 00:48:46;;;;;;;0.00;0.00;;;7.10;99.90;;;;;;5095240;28;20040;-89
2023/04/11 00:51:16;;;;;;;0.10;0.10;;;7.10;99.90;;;;;;5078156;28;20635;-89
2023/04/11 00:53:44;;;;;;;0.40;0.03;;;7.00;99.90;;;;;;5078520;28;20044;-89
2023/04/11 00:56:12;;;;;;;0.00;0.00;;;7.10;99.90;;;;;;5062312;28;20048;-89
2023/04/11 00:58:43;;;;;;;0.00;0.00;;;7.00;99.90;;;;;;5078436;28;20051;-90
2023/04/11 01:01:11;;;;;;;0.00;0.00;;;7.00;99.90;;;;;;5078242;28;20046;-89
2023/04/11 01:03:40;;;;;;;0.00;0.00;;;7.00;99.90;;;;;;5078228;28;20044;-90
2023/04/11 01:06:09;;;;;;;0.15;0.15;;;7.00;99.90;;;;;;5078236;28;20114;-89
2023/04/11 01:08:39;;;;;;;0.00;0.00;;;7.00;99.90;;;;;;5078704;28;20109;-89
2023/04/11 01:11:08;;;;;;;0.00;0.00;;;7.00;99.90;;;;;;5078219;28;20092;-89
2023/04/11 01:13:38;;;;;;;0.00;0.00;;;7.10;99.90;;;;;;5078268;28;20109;-89
2023/04/11 01:16:07;;;;;;;0.22;0.20;;;7.00;99.90;;;;;;5078234;28;20043;-89
2023/04/11 01:18:33;;;;;;;0.00;0.00;;;7.10;99.90;;;;;;5077829;28;20094;-89
2023/04/11 01:21:02;;;;;;;0.00;0.00;;;7.10;99.90;;;;;;5077409;28;20079;-90
2023/04/11 01:23:28;;;;;;;0.00;0.00;;;7.10;99.90;;;;;;5078673;28;20146;-89
2023/04/11 01:26:02;;;;;;;0.00;0.00;;;7.40;99.90;;;;;;5077807;28;20044;-90
2023/04/11 01:28:31;;;;;;;0.65;0.28;;;7.10;99.90;;;;;;5078784;28;20426;-90
2023/04/11 01:31:04;;;;;;;0.00;0.00;;;7.20;99.90;;;;;;5078131;28;20131;-89
2023/04/11 01:33:36;;;;;;;0.00;0.00;;;7.10;99.90;;;;;;5061135;28;20068;-90
2023/04/11 01:36:02;;;;;;;0.00;0.00;;;7.20;99.90;;;;;;5077558;28;20500;-89
2023/04/11 01:38:36;;;;;;;0.00;0.00;;;7.00;99.90;;;;;;5077488;28;20047;-89
2023/04/11 01:41:05;;;;;;;0.00;0.00;;;7.00;99.90;;;;;;5077520;28;20365;-89
2023/04/11 01:43:31;;;;;;;0.05;0.00;;;6.90;99.90;;;;;;5077280;28;20142;-88
2023/04/11 01:46:01;;;;;;;0.00;0.00;;;6.90;99.90;;;;;;5078039;28;20157;-89
2023/04/11 01:48:32;;;;;;;0.00;0.00;;;6.90;99.90;;;;;;5077650;28;20048;-90
2023/04/11 01:50:58;;;;;;;0.00;0.00;;;6.90;99.90;;;;;;5077664;28;20044;-90
2023/04/11 01:53:31;;;;;;;0.00;0.00;;;6.90;99.90;;;;;;5077689;28;20052;-90
2023/04/11 01:56:00;;;;;;;0.00;0.00;;;6.90;99.90;;;;;;5077758;28;20134;-90
2023/04/11 01:58:25;;;;;;;0.15;0.10;;;6.80;99.90;;;;;;5060675;28;20443;-90
2023/04/11 02:00:51;;;;;;;0.00;0.00;;;6.90;99.90;;;;;;5077513;28;20097;-90
2023/04/11 02:03:20;;;;;;;0.00;0.00;;;6.90;99.90;;;;;;5094620;28;20050;-90
2023/04/11 02:05:46;;;;;;;0.00;0.00;;;6.80;99.90;;;;;;5094154;28;20483;-90
2023/04/11 02:08:14;;;;;;;0.00;0.00;;;6.90;99.90;;;;;;5060393;28;20047;-90
2023/04/11 02:10:40;;;;;;;0.00;0.00;;;7.10;99.90;;;;;;5093892;28;20396;-90
2023/04/11 02:13:08;;;;;;;8.75;0.10;;;6.90;99.90;;;;;;5076977;28;20074;-90
2023/04/11 02:15:56;;;;;;;0.00;0.00;;;6.90;99.90;;;;;;5077153;28;20040;-90
2023/04/11 02:18:22;;;;;;;0.00;0.00;;;6.90;99.90;;;;;;5077467;28;20048;-90
2023/04/11 02:20:53;;;;;;;0.00;0.00;;;6.90;99.90;;;;;;5076826;28;20048;-90
2023/04/11 02:23:24;;;;;;;0.00;0.00;;;7.00;99.90;;;;;;5060440;28;20090;-90
2023/04/11 02:25:55;;;;;;;0.00;0.00;;;7.00;99.90;;;;;;5077272;28;20495;-90
2023/04/11 02:28:24;;;;;;;0.00;0.00;;;7.10;99.90;;;;;;5077628;28;20044;-89
2023/04/11 02:30:50;;;;;;;0.00;0.00;;;7.10;99.90;;;;;;5076787;28;20040;-90
2023/04/11 02:33:25;;;;;;;0.00;0.00;;;7.10;99.90;;;;;;5076706;28;20052;-90
2023/04/11 02:35:57;;;;;;;0.63;0.05;;;7.40;99.90;;;;;;5077510;28;20181;-89
2023/04/11 02:38:26;;;;;;;0.52;0.28;;;7.10;99.90;;;;;;5077448;28;20165;-90
2023/04/11 02:40:59;;;;;;;0.00;0.00;;;7.10;99.90;;;;;;5076168;28;20043;-90
2023/04/11 02:43:27;;;;;;;0.30;0.10;;;7.20;99.90;;;;;;5076924;28;20055;-90
2023/04/11 02:45:55;;;;;;;0.70;0.10;;;7.20;99.90;;;;;;5093786;28;20089;-89
2023/04/11 02:48:31;;;;;;;0.00;0.00;;;7.40;99.90;;;;;;5076601;28;20052;-90
2023/04/11 02:51:00;;;;;;;0.00;0.00;;;7.30;99.90;;;;;;5078063;28;20438;-89
2023/04/11 02:53:38;;;;;;;3.85;1.08;;;7.30;99.90;;;;;;5076391;28;20047;-90
2023/04/11 02:56:06;;;;;;;0.30;0.28;;;7.40;99.90;;;;;;5077160;28;20067;-89
2023/04/11 02:58:39;;;;;;;0.00;0.00;;;7.40;99.90;;;;;;5076571;28;20054;-89
2023/04/11 03:01:06;;;;;;;0.25;0.25;;;7.50;99.90;;;;;;5093675;28;20119;-89
2023/04/11 03:03:33;;;;;;;0.00;0.00;;;7.50;99.90;;;;;;5076213;28;20091;-89
2023/04/11 03:06:01;;;;;;;0.00;0.00;;;7.50;99.90;;;;;;5093031;28;20087;-89
2023/04/11 03:08:47;;;;;;;0.00;0.00;;;7.50;99.90;;;;;;5093779;28;20040;-89
2023/04/11 03:11:22;;;;;;;0.38;0.35;;;7.80;99.90;;;;;;5075386;28;20104;-89
2023/04/11 03:13:50;;;;;;;;;;;7.60;99.90;;;;;;5078824;28;20075;-88
2023/04/11 03:16:19;;;;;;;0.03;0.00;;;7.70;99.90;;;;;;5092997;28;19969;-89
2023/04/11 03:18:44;;;;;;;0.00;0.00;;;7.60;99.90;;;;;;5075816;28;20052;-89
2023/04/11 03:21:11;;;;;;;0.00;0.00;;;7.70;99.90;;;;;;5092760;28;20049;-89
2023/04/11 03:23:37;;;;;;;0.00;0.00;;;7.70;99.90;;;;;;5075667;28;20055;-89
2023/04/11 03:26:09;;;;;;;0.00;0.00;;;7.60;99.90;;;;;;5092849;28;20434;-88
2023/04/11 03:28:38;;;;;;;0.00;0.00;;;7.60;99.90;;;;;;5076166;28;20051;-89
2023/04/11 03:31:06;;;;;;;0.00;0.00;;;7.60;99.90;;;;;;5076010;28;20036;-89
2023/04/11 03:33:34;;;;;;;0.00;0.00;;;7.60;99.90;;;;;;5075831;28;20485;-89
2023/04/11 03:36:03;;;;;;;0.20;0.20;;;7.60;99.90;;;;;;5075802;28;20074;-89
2023/04/11 03:38:29;;;;;;;0.10;0.10;;;7.70;99.90;;;;;;5092174;28;20487;-88
2023/04/11 03:41:02;;;;;;;0.28;0.22;;;7.70;99.90;;;;;;5092714;28;20094;-89
2023/04/11 03:43:30;;;;;;;0.13;0.05;;;7.70;99.90;;;;;;5076737;28;20496;-89
2023/04/11 03:46:02;;;;;;;0.30;0.30;;;7.70;99.90;;;;;;5080046;28;20050;-89
2023/04/11 03:48:28;;;;;;;0.00;0.00;;;7.70;99.90;;;;;;5097057;28;20053;-88
2023/04/11 03:50:54;;;;;;;1.98;0.98;;;7.80;99.90;;;;;;5096420;28;20097;-88
2023/04/11 03:53:20;;;;;;;0.00;0.00;;;7.80;99.90;;;;;;5097386;28;20048;-91
2023/04/11 03:55:47;;;;;;;0.00;0.00;;;7.80;99.90;;;;;;5081790;28;20044;-89
2023/04/11 03:58:14;;;;;;;0.00;0.00;;;7.80;99.90;;;;;;5080230;28;20126;-89
2023/04/11 04:00:40;;;;;;;0.00;0.00;;;7.70;99.90;;;;;;5062576;28;20101;-86
2023/04/11 04:03:05;;;;;;;0.00;0.00;;;7.70;99.90;;;;;;5078795;28;20044;-87
2023/04/11 04:05:31;;;;;;;0.00;0.00;;;7.70;99.90;;;;;;5079194;28;20443;-86
2023/04/11 04:07:57;;;;;;;0.00;0.00;;;7.70;99.90;;;;;;5080028;28;20201;-87
2023/04/11 04:10:22;;;;;;;0.00;0.00;;;7.70;99.90;;;;;;5062342;28;20501;-86
2023/04/11 04:12:48;;;;;;;0.00;0.00;;;7.70;99.90;;;;;;5078870;28;20074;-86
2023/04/11 04:15:14;;;;;;;0.00;0.00;;;7.70;99.90;;;;;;5095568;28;20592;-87
2023/04/11 04:17:43;;;;;;;0.00;0.00;;;7.70;99.90;;;;;;5062266;28;20040;-87
2023/04/11 04:20:09;;;;;;;0.00;0.00;;;7.70;99.90;;;;;;5078795;28;20115;-87
2023/04/11 04:22:36;;;;;;;0.00;0.00;;;7.80;99.90;;;;;;5045662;28;20044;-87
2023/04/11 04:25:02;;;;;;;3.70;0.57;;;7.70;99.90;;;;;;5078451;28;20446;-88
2023/04/11 04:27:28;;;;;;;0.00;0.00;;;7.70;99.90;;;;;;5062345;28;20070;-88
2023/04/11 04:29:55;;;;;;;0.00;0.00;;;7.70;99.90;;;;;;5062493;28;20044;-87
2023/04/11 04:32:22;;;;;;;0.00;0.00;;;7.70;99.90;;;;;;5062636;28;20043;-87
2023/04/11 04:34:53;;;;;;;0.00;0.00;;;7.70;99.90;;;;;;5095126;28;20105;-87
2023/04/11 04:37:21;;;;;;;0.57;0.20;;;7.70;99.90;;;;;;5095711;28;20090;-88
2023/04/11 04:39:54;;;;;;;0.57;0.57;;;7.80;99.90;;;;;;5097254;28;20048;-91
2023/04/11 04:42:22;;;;;;;0.00;0.00;;;7.80;99.90;;;;;;5107050;28;20507;-89
2023/04/11 04:44:48;;;;;;;0.00;0.00;;;7.80;99.90;;;;;;5076708;28;20373;-89
2023/04/11 04:47:17;;;;;;;0.00;0.00;;;7.80;99.90;;;;;;5045521;28;20230;-89
2023/04/11 04:49:44;;;;;;;0.00;0.00;;;7.80;99.90;;;;;;5096348;28;20036;-90
2023/04/11 04:52:20;;;;;;;0.32;0.00;;;7.80;99.90;;;;;;5061773;28;20044;-91
2023/04/11 04:54:59;;;;;;;2.10;0.68;;;7.80;99.90;;;;;;5062843;28;20036;-91
2023/04/11 04:57:28;;;;;;;0.55;0.38;;;7.80;99.90;;;;;;5084971;28;20431;-91
2023/04/11 05:00:06;;;;;;;0.00;0.00;;;7.80;99.90;;;;;;5078907;28;20052;-91
2023/04/11 05:02:36;;;;;;;0.00;0.00;;;7.70;99.90;;;;;;5094757;28;20056;-91
2023/04/11 05:05:06;;;;;;;0.00;0.00;;;7.70;99.90;;;;;;5078836;28;20044;-91
2023/04/11 05:07:35;;;;;;;0.03;0.03;;;7.70;99.90;;;;;;5064183;28;20048;-90
2023/04/11 05:10:03;;;;;;;0.68;0.68;;;7.70;99.90;;;;;;5100555;28;20507;-90
2023/04/11 05:12:52;;;;;;;0.00;0.00;;;7.60;99.90;;;;;;5101383;28;20448;-91
2023/04/11 05:15:28;;;;;;;;;;;;;;;;;;;;;
2023/04/11 05:18:29;;;;;;;0.00;0.00;;;7.70;99.90;;;;;;5117754;28;20052;-90
2023/04/11 05:21:00;;;;;;;0.20;0.20;;;7.70;99.90;;;;;;5087594;28;20096;-90
2023/04/11 05:23:43;;;;;;;0.00;0.00;;;7.80;99.90;;;;;;5117596;28;20040;-90
2023/04/11 05:26:10;;;;;;;0.00;0.00;;;7.80;99.90;;;;;;5120719;28;20046;-90
2023/04/11 05:29:05;;;;;;;0.00;0.00;;;7.70;99.90;;;;;;5101484;28;20051;-89
2023/04/11 05:31:30;;;;;;;0.10;0.00;;;7.80;99.90;;;;;;5116129;28;20571;-89
2023/04/11 05:34:05;;;;;;;0.57;0.50;;;7.80;99.90;;;;;;5099533;28;20082;-87
2023/04/11 05:36:46;;;;;;;;;;;;;;;;;;;;;
2023/04/11 05:39:29;;;;;;;;;;;;;;;;;;;;;
2023/04/11 05:42:07;;;;;;;;;;;;;;;;;;;;;
2023/04/11 05:44:33;;;;;;;0.00;0.00;;;7.80;99.90;;;;;;5103156;28;20476;-88
2023/04/11 05:47:10;;;;;;;0.00;0.00;;;7.90;99.90;;;;;;5085029;28;20050;-91
2023/04/11 05:49:49;;;;;;;0.00;0.00;;;7.90;99.90;;;;;;5102513;28;20458;-91
2023/04/11 05:52:25;;;;;;;1.45;0.20;;;7.90;99.90;;;;;;5084077;28;20515;-91
2023/04/11 05:54:53;;;;;;;0.00;0.00;;;7.90;99.90;;;;;;5086347;28;20437;-90
2023/04/11 05:57:30;;;;;;;0.10;0.10;;;7.90;99.90;;;;;;5100667;28;20044;-89
2023/04/11 06:00:19;;;;;;;0.10;0.10;;;8.00;99.90;;;;;;5098624;28;20496;-90
2023/04/11 06:02:51;;;;;;;0.13;0.13;;;8.00;99.90;;;;;;5097606;28;20105;-88
2023/04/11 06:05:16;;;;;;;0.00;0.00;;;8.00;99.90;;;;;;5097184;28;20047;-88
2023/04/11 06:08:08;;;;;;;0.00;0.00;;;8.00;99.90;;;;;;5080665;28;20563;-94
2023/04/11 06:10:36;;;;;;;0.00;0.00;;;8.10;99.80;;;;;;5097904;28;20050;-92
2023/04/11 06:13:15;;;;;;;0.00;0.00;;;8.10;99.30;;;;;;5082209;28;20068;-92
2023/04/11 06:15:41;;;;;;;0.00;0.00;;;7.80;99.00;;;;;;5098430;28;20086;-92
2023/04/11 06:18:13;;;;;;;0.00;0.00;;;8.20;98.70;;;;;;5097829;28;20040;-92
2023/04/11 06:20:51;;;;;;;0.35;0.20;;;8.30;98.50;;;;;;5097876;28;20047;-93
2023/04/11 06:23:45;;;;;;;0.00;0.00;;;8.30;98.50;;;;;;5097863;28;20502;-92
2023/04/11 06:26:11;;;;;;;2.30;1.25;;;8.30;97.50;;;;;;5083573;28;20050;-92
2023/04/11 06:31:32;;;;;;;0.00;0.00;;;8.30;97.00;;;;;;5103321;28;20054;-92
2023/04/11 06:34:03;;;;;;;0.00;0.00;;;8.30;96.30;;;;;;5097606;28;20050;-91
2023/04/11 06:36:32;;;;;;;0.00;0.00;;;8.40;96.60;;;;;;5114551;28;20108;-92
2023/04/11 06:38:58;;;;;;;0.38;0.38;;;8.40;95.60;;;;;;5097278;28;20075;-90
2023/04/11 06:41:24;;;;;;;0.00;0.00;;;8.50;95.30;;;;;;5096580;28;20128;-89
2023/04/11 06:43:49;;;;;;;0.30;0.20;;;8.50;94.50;;;;;;5096424;28;20051;-88
2023/04/11 06:46:17;;;;;;;0.00;0.00;;;8.50;94.70;;;;;;5113517;28;20051;-88
2023/04/11 06:48:43;;;;;;;0.00;0.00;;;8.50;94.40;;;;;;5113014;28;20115;-88
2023/04/11 06:51:09;;;;;;;0.00;0.00;;;8.50;93.40;;;;;;5096940;28;20176;-89
2023/04/11 06:53:47;;;;;;;;;;;;;;;;;;;;;
2023/04/11 06:56:26;;;;;;;0.00;0.00;;;8.50;93.60;;;;;;5093968;28;20048;-90
2023/04/11 06:58:57;;;;;;;0.35;0.00;;;8.50;90.40;;;;;;5078024;28;20087;-93
2023/04/11 07:01:29;;;;;;;0.00;0.00;;;8.50;90.00;;;;;;5060220;28;20511;-90
2023/04/11 07:03:55;;;;;;;0.43;0.43;;;8.50;88.80;;;;;;5076236;28;20048;-90
2023/04/11 07:06:25;;;;;;;0.00;0.00;;;8.50;87.90;;;;;;5093223;28;20040;-89
2023/04/11 07:08:51;;;;;;;0.08;0.05;;;8.50;88.10;;;;;;5094084;28;20369;-90
2023/04/11 07:11:17;;;;;;;0.00;0.00;;;8.50;87.90;;;;;;5076051;28;20093;-90
2023/04/11 07:13:43;;;;;;;0.00;0.00;;;8.60;89.20;;;;;;5059669;28;20048;-89
2023/04/11 07:16:09;;;;;;;0.00;0.00;;;8.60;89.70;;;;;;5076571;28;20040;-89
2023/04/11 07:18:35;;;;;;;0.65;0.43;;;8.70;87.40;;;;;;5061003;28;20162;-90
2023/04/11 07:21:00;;;;;;;0.00;0.00;;;8.80;87.00;;;;;;5080474;28;20051;-89
2023/04/11 07:23:26;;;;;;;7.22;1.23;;;8.90;84.80;;;;;;5081189;28;20048;-90
2023/04/11 07:25:55;;;;;;;0.50;0.50;;;8.90;77.50;;;;;;5080874;28;20044;-89
2023/04/11 07:28:21;;;;;;;8.38;0.35;;;8.90;80.20;;;;;;5080008;28;20050;-89
2023/04/11 07:30:50;;;;;;;0.00;0.00;;;9.00;79.00;;;;;;5080513;28;20048;-89
2023/04/11 07:33:16;;;;;;;0.28;0.28;;;9.00;75.20;;;;;;5080408;28;20091;-89
2023/04/11 07:35:44;;;;;;;0.30;0.30;;;9.00;68.20;;;;;;5080047;28;20044;-89
2023/04/11 07:38:11;;;;;;;0.00;0.00;;;9.10;66.10;;;;;;5080034;28;20109;-89
2023/04/11 07:40:37;;;;;;;0.35;0.35;;;9.10;66.70;;;;;;5080011;28;20044;-89
2023/04/11 07:43:02;;;;;;;0.00;0.00;;;9.20;64.10;;;;;;5080004;28;20051;-89
2023/04/11 07:45:28;;;;;;;0.00;0.00;;;9.20;66.50;;;;;;5079914;28;20135;-88
2023/04/11 07:47:54;;;;;;;0.00;0.00;;;9.40;64.10;;;;;;5096022;28;20101;-90
2023/04/11 07:50:20;;;;;;;0.00;0.00;;;9.40;58.00;;;;;;5096636;28;20040;-88
2023/04/11 07:52:46;;;;;;;0.00;0.00;;;9.70;60.70;;;;;;5079013;28;20169;-88
2023/04/11 07:55:24;;;;;;;;;;;;;;;;;;;;;
2023/04/11 07:57:53;;;;;;;0.00;0.00;;;10.00;39.70;;;;;;5097074;28;20048;-91
2023/04/11 08:00:24;;;;;;;0.03;0.00;;;10.00;36.00;;;;;;5079835;28;20524;-90
2023/04/11 08:02:53;;;;;;;0.00;0.00;;;10.00;38.00;;;;;;5080091;28;20048;-90
2023/04/11 08:05:19;;;;;;;0.10;0.10;;;10.00;44.60;;;;;;5095779;28;20546;-88
2023/04/11 08:07:44;;;;;;;0.93;0.85;;;10.10;36.80;;;;;;5096016;28;20047;-87
2023/04/11 08:10:10;;;;;;;0.08;0.00;;;10.30;44.20;;;;;;5095727;28;20131;-87
2023/04/11 08:12:39;;;;;;;0.55;0.43;;;10.60;36.60;;;;;;5062104;28;20055;-87
2023/04/11 08:15:07;;;;;;;0.00;0.00;;;10.60;22.20;;;;;;5096716;28;20082;-87
2023/04/11 08:17:36;;;;;;;0.88;0.17;;;10.50;17.50;;;;;;5079359;28;20052;-86
2023/04/11 08:20:07;;;;;;;0.00;0.00;;;10.30;15.30;;;;;;5078612;28;20226;-87
2023/04/11 08:22:33;;;;;;;0.00;0.00;;;10.30;19.80;;;;;;5079205;28;20047;-86
2023/04/11 08:25:01;;;;;;;0.00;0.00;;;10.30;33.20;;;;;;5095401;28;20395;-86
2023/04/11 08:27:27;;;;;;;0.10;0.10;;;10.50;33.90;;;;;;5078717;28;20055;-87
2023/04/11 08:29:53;;;;;;;0.28;0.28;;;10.70;22.90;;;;;;5095160;28;20036;-87
2023/04/11 08:32:18;;;;;;;0.00;0.00;;;10.70;22.90;;;;;;5078483;28;20127;-86
2023/04/11 08:34:44;;;;;;;0.00;0.00;;;10.70;7.10;;;;;;5079237;28;20193;-86
2023/04/11 08:37:11;;;;;;;0.00;0.00;;;10.70;7.30;;;;;;5095479;28;20044;-87
2023/04/11 08:39:36;;;;;;;0.10;0.10;;;10.60;8.10;;;;;;5079439;28;20058;-86
2023/04/11 08:42:02;;;;;;;0.00;0.00;;;10.80;9.40;;;;;;5061616;28;20127;-86
2023/04/11 08:44:28;;;;;;;0.00;0.00;;;10.90;18.20;;;;;;5078570;28;20040;-86
2023/04/11 08:47:06;;;;;;;0.00;0.00;;;11.00;1.80;;;;;;5078932;28;20048;-93
2023/04/11 08:49:35;;;;;;;0.00;0.00;;;11.00;1.00;;;;;;5078829;28;20044;-87
2023/04/11 08:52:04;;;;;;;0.10;0.10;;;10.80;1.00;;;;;;5078700;28;20044;-88
2023/04/11 08:54:29;;;;;;;2.35;0.63;;;10.70;1.00;;;;;;5078017;28;20043;-85
2023/04/11 08:56:55;;;;;;;0.40;0.40;;;10.20;1.00;;;;;;5061795;28;20046;-85
2023/04/11 08:59:21;;;;;;;1.88;0.73;;;9.80;17.70;;;;;;5078039;28;20058;-86
2023/04/11 09:01:48;;;;;;;0.00;0.00;;;9.60;25.30;;;;;;5078157;28;20044;-86
2023/04/11 09:04:14;;;;;;;0.00;0.00;;;9.40;39.10;;;;;;5061553;28;20104;-86
2023/04/11 09:06:54;;;;;;;0.17;0.17;;;9.30;58.40;;;;;;5061109;28;20044;-87
2023/04/11 09:09:33;;;;;;;0.00;0.00;;;9.40;69.20;;;;;;5094743;28;20093;-88
2023/04/11 09:12:00;;;;;;;0.08;0.08;;;9.40;66.00;;;;;;5077821;28;20051;-83
2023/04/11 09:14:26;;;;;;;0.00;0.00;;;9.30;66.20;;;;;;5077856;28;20048;-81
2023/04/11 09:16:58;;;;;;;0.00;0.00;;;9.20;70.80;;;;;;5094506;28;20055;-78
2023/04/11 09:19:26;;;;;;;0.00;0.00;;;9.00;61.60;;;;;;5094135;28;20491;-79
2023/04/11 09:21:53;;;;;;;0.00;0.00;;;8.60;55.20;;;;;;5077592;28;20119;-77
2023/04/11 09:24:19;;;;;;;1.88;0.47;;;8.40;59.20;;;;;;5077659;28;20154;-77
2023/04/11 09:26:45;;;;;;;0.57;0.20;;;8.20;66.10;;;;;;5095254;28;20134;-78
2023/04/11 09:29:12;;;;;;;0.00;0.00;;;8.00;74.80;;;;;;5095420;28;20140;-78
2023/04/11 09:31:39;;;;;;;0.00;0.00;;;7.90;82.90;;;;;;5095201;28;20112;-77
2023/04/11 09:34:05;;;;;;;0.00;0.00;;;7.90;87.00;;;;;;5094607;28;20048;-76
2023/04/11 09:36:31;;;;;;;0.00;0.00;;;7.90;90.50;;;;;;5095459;28;20184;-76
2023/04/11 09:38:58;;;;;;;0.10;0.10;;;8.10;92.30;;;;;;5077113;28;20480;-76
2023/04/11 09:41:37;;;;;;;0.80;0.20;;;8.70;99.10;;;;;;5092987;28;20059;-76
2023/04/11 09:44:03;;;;;;;0.25;0.25;;;9.20;93.00;;;;;;5095368;28;20442;-78
2023/04/11 09:46:29;;;;;;;0.00;0.00;;;9.80;96.50;;;;;;5094381;28;20040;-79
2023/04/11 09:48:55;;;;;;;0.00;0.00;;;10.20;91.60;;;;;;5076349;28;20101;-77
2023/04/11 09:59:08;;;;;;;0.00;0.00;;;9.60;35.60;;;;;;5128773;22;20531;-79
2023/04/11 10:01:35;;;;;;;0.00;0.00;;;9.50;54.00;;;;;;5013877;28;20127;-79
2023/04/11 10:04:03;;;;;;;0.00;0.00;;;9.40;59.50;;;;;;5013818;28;20041;-80
2023/04/11 10:07:01;;;;;;;0.00;0.00;;;9.30;65.40;;;;;;5014145;28;20046;-80
2023/04/11 10:09:31;;;;;;;0.00;0.00;;;9.30;73.90;;;;;;5013758;28;20050;-80
2023/04/11 10:11:56;;;;;;;2.35;0.10;;;9.90;92.90;;;;;;5014330;28;20437;-81
2023/04/11 10:14:43;;;;;;;0.00;0.00;;;10.40;80.50;;;;;;4997621;28;20046;-81
2023/04/11 10:17:13;;;;;;;0.10;0.10;;;10.60;60.20;;;;;;4997338;28;20057;-82
2023/04/11 10:19:39;;;;;;;0.00;0.00;;;10.60;43.40;;;;;;5013578;28;20045;-82
2023/04/11 10:22:05;;;;;;;0.00;0.00;;;10.70;43.00;;;;;;4996997;28;20050;-82
2023/04/11 10:24:31;;;;;;;0.00;0.00;;;10.90;56.90;;;;;;5013486;28;20049;-82
2023/04/11 10:27:02;;;;;;;0.57;0.55;;;11.30;69.40;;;;;;5013458;28;20056;-82
2023/04/11 10:29:32;;;;;;;0.22;0.10;;;11.80;43.10;;;;;;4997390;28;20516;-82
2023/04/11 10:32:18;;;;;;;0.00;0.00;;;12.00;16.70;;;;;;4996887;28;20045;-82
2023/04/11 10:34:52;;;;;;;0.00;0.00;;;12.20;5.20;;;;;;5013407;28;20049;-81
2023/04/11 10:37:31;;;;;;;0.98;0.47;;;12.50;1.70;;;;;;4996956;28;20130;-81
2023/04/11 10:39:59;;;;;;;0.15;0.15;;;12.80;1.00;;;;;;4997239;28;20477;-81
2023/04/11 10:42:29;;;;;;;1.00;0.32;;;13.10;1.00;;;;;;4996909;28;20057;-81
2023/04/11 10:45:16;;;;;;;0.00;0.00;;;13.40;2.60;;;;;;5014042;28;20099;-82
2023/04/11 10:48:11;;;;;;;0.00;0.00;;;13.40;1.00;;;;;;5013493;28;20057;-82
2023/04/11 10:50:44;;;;;;;0.32;0.30;;;13.10;1.00;;;;;;5012910;28;20054;-81
2023/04/11 10:53:35;;;;;;;0.20;0.15;;;12.70;1.00;;;;;;5012506;28;20050;-82
2023/04/11 10:56:01;;;;;;;0.00;0.00;;;12.40;1.00;;;;;;4997054;28;20060;-81
2023/04/11 10:58:38;;;;;;;0.08;0.08;;;12.10;1.00;;;;;;4996236;28;20108;-82
2023/04/11 11:01:17;;;;;;;0.03;0.03;;;11.70;1.00;;;;;;4996712;28;20544;-82
2023/04/11 11:03:55;;;;;;;0.10;0.10;;;11.30;1.00;;;;;;5013863;28;20133;-82
2023/04/11 11:06:21;;;;;;;0.00;0.00;;;11.10;1.00;;;;;;4996683;28;20122;-82
2023/04/11 11:08:47;;;;;;;0.00;0.00;;;11.50;16.30;;;;;;5013147;28;20114;-90
2023/04/11 11:11:18;;;;;;;0.00;0.00;;;12.10;39.30;;;;;;4981474;28;20466;-85
2023/04/11 11:13:54;;;;;;;0.00;0.00;;;12.40;7.40;;;;;;4997173;28;20046;-87
2023/04/11 11:16:21;;;;;;;0.00;0.00;;;12.50;1.00;;;;;;4997074;28;20121;-91
2023/04/11 11:18:50;;;;;;;0.00;0.00;;;12.50;1.00;;;;;;4997075;28;20046;-88
2023/04/11 11:26:41;;;;;;;0.00;0.00;;;13.30;99.90;;;;;;5502077;23;20062;-82
2023/04/11 11:29:48;;;;;;;0.20;0.20;;;13.30;99.90;;;;;;4996612;28;20054;-90
2023/04/11 11:32:31;;;;;;;0.00;0.00;;;13.30;99.90;;;;;;4997430;28;20214;-91
2023/04/11 11:35:19;;;;;;;0.40;0.20;;;13.50;99.90;;;;;;4997764;28;20049;-90
2023/04/11 11:37:53;;;;;;;0.00;0.00;;;13.70;99.90;;;;;;4996521;28;20065;-90
2023/04/11 11:40:43;;;;;;;0.00;0.00;;;13.80;39.10;;;;;;4980532;28;20488;-91
2023/04/11 11:43:27;;;;;;;0.00;0.00;;;13.60;99.90;;;;;;4997590;28;20060;-91
2023/04/11 11:46:13;;;;;;;0.00;0.00;;;13.80;1.00;;;;;;4997606;28;20054;-93
2023/04/11 11:56:05;;;;;;;0.00;0.00;;;14.20;99.90;;;;;;4886202;29;20526;-92
2023/04/11 11:59:11;;;;;;;0.00;0.00;;;14.10;10.80;;;;;;4907207;29;20047;-93
2023/04/11 12:06:25;;;;;;;0.00;0.00;;;13.40;1.00;;;;;;4843277;29;20106;-93
2023/04/11 12:31:33;;;;;;;0.00;0.00;;;13.00;1.00;;;;;;4791522;29;20061;-86
2023/04/11 12:34:16;;;;;;;0.08;0.08;;;12.70;1.00;;;;;;4800864;29;20583;-91
2023/04/11 12:36:42;;;;;;;0.00;0.00;;;12.60;99.90;;;;;;4952789;28;20058;-84
2023/04/11 12:39:08;;;;;;;0.30;0.30;;;12.40;99.90;;;;;;4982451;28;20050;-83
2023/04/11 12:41:34;;;;;;;0.00;0.00;;;12.30;1.00;;;;;;4997604;28;20512;-83
2023/04/11 12:44:01;;;;;;;0.00;0.00;;;12.30;99.90;;;;;;4981706;28;20050;-83
2023/04/11 12:46:26;;;;;;;0.15;0.15;;;12.70;1.00;;;;;;4998003;28;20196;-83
2023/04/11 12:48:52;;;;;;;0.00;0.00;;;13.10;29.90;;;;;;4981778;28;20161;-85
2023/04/11 12:51:18;;;;;;;0.00;0.00;;;13.50;99.90;;;;;;4997955;28;20050;-88
2023/04/11 12:53:44;;;;;;;0.00;0.00;;;13.90;99.90;;;;;;4998450;28;20564;-84
2023/04/11 12:56:11;;;;;;;0.00;0.00;;;14.10;99.90;;;;;;4982863;28;20056;-84
2023/04/11 12:58:37;;;;;;;0.10;0.00;;;13.90;13.40;;;;;;4999240;28;20523;-83
2023/04/11 13:01:04;;;;;;;0.00;0.00;;;13.70;99.90;;;;;;4982588;28;20081;-87
2023/04/11 13:03:30;;;;;;;0.52;0.40;;;13.80;99.90;;;;;;4982494;28;20397;-84
2023/04/11 13:05:56;;;;;;;0.00;0.00;;;13.70;8.70;;;;;;4982224;28;20048;-85
2023/04/11 13:08:21;;;;;;;0.00;0.00;;;13.70;99.90;;;;;;4998814;28;20034;-84
2023/04/11 13:10:47;;;;;;;0.00;0.00;;;13.70;1.00;;;;;;4999306;28;20425;-84
2023/04/11 13:13:13;;;;;;;0.00;0.00;;;13.80;1.00;;;;;;4998532;28;20050;-85
2023/04/11 13:15:39;;;;;;;0.00;0.00;;;14.00;99.90;;;;;;4982286;28;20050;-85
2023/04/11 13:18:05;;;;;;;0.98;0.55;;;14.20;22.00;;;;;;4998749;28;20369;-85
2023/04/11 13:20:31;;;;;;;0.10;0.10;;;14.50;1.00;;;;;;4998325;28;20053;-84
2023/04/11 13:22:57;;;;;;;0.00;0.00;;;14.30;1.00;;;;;;4982157;28;20132;-84
2023/04/11 13:25:22;;;;;;;0.00;0.00;;;14.20;99.90;;;;;;4998217;28;20503;-84
2023/04/11 13:27:48;;;;;;;0.00;0.00;;;14.40;99.90;;;;;;4998165;28;20137;-84
2023/04/11 13:30:14;;;;;;;0.28;0.10;;;14.30;99.90;;;;;;4997933;28;20050;-89
2023/04/11 13:32:40;;;;;;;0.00;0.00;;;14.40;99.90;;;;;;4998126;28;20057;-87
2023/04/11 13:35:07;;;;;;;0.00;0.00;;;14.20;1.00;;;;;;4998240;28;20057;-84
2023/04/11 13:37:32;;;;;;;0.13;0.13;;;14.30;99.90;;;;;;4998879;28;20077;-85
2023/04/11 13:39:58;;;;;;;0.95;0.77;;;14.10;99.90;;;;;;4997676;28;20046;-84
2023/04/11 13:42:24;;;;;;;0.00;0.00;;;14.10;42.90;;;;;;4981892;28;20056;-85
2023/04/11 13:44:50;;;;;;;0.98;0.73;;;14.10;99.90;;;;;;4997923;28;20129;-84
2023/04/11 13:47:21;;;;;;;0.00;0.00;;;14.20;17.90;;;;;;4981631;28;20144;-84
2023/04/11 13:49:47;;;;;;;0.00;0.00;;;14.20;37.80;;;;;;4997839;28;20050;-84
2023/04/11 13:52:12;;;;;;;0.00;0.00;;;14.20;99.90;;;;;;4981067;28;20042;-84
2023/04/11 13:54:38;;;;;;;0.00;0.00;;;14.40;93.50;;;;;;4997742;28;20041;-84
2023/04/11 13:57:06;;;;;;;0.00;0.00;;;14.30;99.90;;;;;;4997858;28;20053;-84
2023/04/11 13:59:32;;;;;;;0.00;0.00;;;14.50;1.00;;;;;;4997614;28;20092;-84
2023/04/11 14:01:58;;;;;;;0.00;0.00;;;14.60;7.70;;;;;;4997608;28;20077;-83
2023/04/11 14:04:23;;;;;;;0.20;0.13;;;14.50;99.90;;;;;;4981095;28;20046;-83
2023/04/11 14:06:52;;;;;;;0.00;0.00;;;14.40;99.90;;;;;;4980994;28;20100;-83
2023/04/11 14:09:18;;;;;;;0.00;0.00;;;14.10;99.90;;;;;;5013803;28;20493;-84